Sunday, February 17, 2019, 3:04 PM EST
Back to Local

KBLM, Belmar-farmingdale

Location: Farmingdale, NJ, United States Lat: 40.183
Local Time: 3:04 PM EST (20:04 GMT) Lon: -74.133
Time Zone: US/Eastern Elev: 157 ft

Show me the last for .
Show Decoded

2019-02-17 13:56 METAR KBLM 171856Z AUTO 11006KT 10SM CLR 00/M06 A3012 RMK AO2 SLP205 T00001061
                 FZRANO =
2019-02-17 12:56 METAR KBLM 171756Z AUTO 08004KT 10SM CLR 01/M07 A3017 RMK AO2 SLP222 T00061067
                 10006 21039 51006 FZRANO =
2019-02-17 11:56 METAR KBLM 171656Z AUTO 12005KT 10SM CLR 00/M07 A3017 RMK AO2 SLP221 T00001072
                 FZRANO =
2019-02-17 10:56 METAR KBLM 171556Z AUTO 10007KT 10SM CLR 00/M08 A3017 RMK AO2 SLP222 T00001078
                 FZRANO =
2019-02-17 09:56 METAR KBLM 171456Z AUTO 09011KT 10SM CLR 00/M08 A3015 RMK AO2 SLP217 T00001078
                 50010 FZRANO =
2019-02-17 08:56 METAR KBLM 171356Z AUTO 04007KT 10SM CLR M01/M08 A3018 RMK AO2 SLP224 T10111083
                 FZRANO =
2019-02-17 07:56 METAR KBLM 171256Z AUTO 01004KT 10SM CLR M02/M08 A3016 RMK AO2 SLP218 T10171078
                 FZRANO =
2019-02-17 06:56 METAR KBLM 171156Z AUTO 32004KT 10SM CLR M04/M08 A3012 RMK AO2 SLP206 T10391078
                 11017 21039 53018 FZRANO =
2019-02-17 05:56 METAR KBLM 171056Z AUTO 36006KT 10SM CLR M03/M08 A3006 RMK AO2 SLP186 T10331083
                 FZRANO =
2019-02-17 04:56 METAR KBLM 170956Z AUTO 01006KT 10SM CLR M03/M08 A3009 RMK AO2 SLP193 T10281083
                 FZRANO =
2019-02-17 03:56 METAR KBLM 170856Z AUTO 35006KT 10SM CLR M03/M08 A3007 RMK AO2 SLP187 T10281078
                 53006 FZRANO =
2019-02-17 02:56 METAR KBLM 170756Z AUTO 35008KT 10SM CLR M02/M08 A3005 RMK AO2 SLP180 T10221078
                 FZRANO =
2019-02-17 01:56 METAR KBLM 170656Z AUTO 31007KT 10SM CLR M02/M08 A3005 RMK AO2 SLP182 T10221078
                 FZRANO =
2019-02-17 00:56 METAR KBLM 170556Z AUTO 32007KT 10SM CLR M02/M08 A3005 RMK AO2 SLP181 T10171078
                 10033 21017 51017 FZRANO =
2019-02-16 23:56 METAR KBLM 170456Z AUTO 31007KT 10SM CLR M01/M07 A3005 RMK AO2 SLP181 T10111072
                 401111017 FZRANO =
2019-02-16 22:56 METAR KBLM 170356Z AUTO 33008KT 10SM CLR M01/M07 A3002 RMK AO2 SLP170 T10061072
                 FZRANO =
2019-02-16 21:56 METAR KBLM 170256Z AUTO 33008KT 10SM CLR 01/M08 A3000 RMK AO2 SLP165 T00061083
                 51021 FZRANO =
2019-02-16 20:56 METAR KBLM 170156Z AUTO 32008KT 10SM CLR 01/M08 A2998 RMK AO2 SLP158 T00111078
                 FZRANO =
2019-02-16 19:56 METAR KBLM 170056Z AUTO 32007KT 10SM CLR 02/M08 A2996 RMK AO2 SLP150 T00221078
                 FZRANO =
2019-02-16 18:56 METAR KBLM 162356Z AUTO 33006KT 10SM CLR 03/M07 A2994 RMK AO2 SLP143 T00331072
                 10072 20033 53029 =
2019-02-16 17:56 METAR KBLM 162256Z AUTO 32009KT 10SM CLR 04/M07 A2991 RMK AO2 SLP134 T00441072 =
2019-02-16 16:56 METAR KBLM 162156Z AUTO 32014KT 10SM CLR 06/M07 A2987 RMK AO2 SLP120 T00611072 =
2019-02-16 15:56 METAR KBLM 162056Z AUTO 31014KT 10SM CLR 07/M07 A2985 RMK AO2 SLP115 T00671072
                 56005 =

Support USWX by starting your Amazon purchase here.